Time;durP1;ratioP1;P1;durP2;ratioP2;P2;SDS_P1;SDS_P2;PMS_P1;PMS_P2;Temp;Humidity;BMP_temperature;BMP_pressure;BME280_temperature;BME280_humidity;BME280_pressure;Samples;Min_cycle;Max_cycle;Signal;HPM_P1;HPM_P2
2022/11/09 00:01:23;;;;;;;16.15;11.60;;;;;;;;;;4988127;28;20069;-77
2022/11/09 00:03:53;;;;;;;12.63;10.05;;;;;;;;;;5000451;28;20034;-76
2022/11/09 00:06:21;;;;;;;11.20;8.93;;;;;;;;;;4987805;28;20508;-76
2022/11/09 00:08:47;;;;;;;16.52;11.70;;;;;;;;;;4986097;28;20416;-76
2022/11/09 00:11:16;;;;;;;12.15;10.23;;;;;;;;;;4983940;28;20065;-76
2022/11/09 00:13:42;;;;;;;12.82;11.32;;;;;;;;;;4999553;28;20046;-76
2022/11/09 00:16:09;;;;;;;10.43;8.98;;;;;;;;;;4985940;28;20492;-77
2022/11/09 00:18:36;;;;;;;14.23;8.55;;;;;;;;;;4990652;28;20565;-77
2022/11/09 00:21:10;;;;;;;13.95;9.98;;;;;;;;;;5002490;28;20033;-77
2022/11/09 00:23:38;;;;;;;11.32;8.60;;;;;;;;;;4987182;28;20038;-76
2022/11/09 00:26:07;;;;;;;10.50;8.25;;;;;;;;;;4987840;28;20034;-77
2022/11/09 00:28:33;;;;;;;10.32;9.18;;;;;;;;;;4988518;28;20022;-77
2022/11/09 00:31:00;;;;;;;12.25;8.70;;;;;;;;;;4985054;28;20497;-76
2022/11/09 00:33:26;;;;;;;10.50;9.05;;;;;;;;;;4987709;28;20060;-76
2022/11/09 00:35:51;;;;;;;10.40;8.52;;;;;;;;;;4990558;28;20046;-76
2022/11/09 00:38:17;;;;;;;16.20;11.43;;;;;;;;;;4986371;28;20432;-77
2022/11/09 00:40:46;;;;;;;12.95;10.98;;;;;;;;;;4989239;28;20373;-76
2022/11/09 00:43:12;;;;;;;15.02;10.85;;;;;;;;;;4987447;28;20041;-76
2022/11/09 00:45:39;;;;;;;13.20;8.57;;;;;;;;;;4988091;28;20033;-76
2022/11/09 00:48:08;;;;;;;12.70;8.18;;;;;;;;;;4997625;28;20511;-76
2022/11/09 00:50:34;;;;;;;9.43;7.50;;;;;;;;;;4987687;28;20041;-76
2022/11/09 00:53:00;;;;;;;12.93;7.88;;;;;;;;;;4986880;28;20038;-76
2022/11/09 00:55:26;;;;;;;11.98;9.32;;;;;;;;;;5002303;28;20085;-76
2022/11/09 00:57:54;;;;;;;15.20;9.30;;;;;;;;;;4998687;28;20128;-76
2022/11/09 01:00:24;;;;;;;12.52;8.32;;;;;;;;;;4985912;28;20026;-76
2022/11/09 01:02:54;;;;;;;9.40;8.23;;;;;;;;;;4983940;28;20034;-76
2022/11/09 01:05:20;;;;;;;14.60;9.05;;;;;;;;;;4987844;28;20048;-77
2022/11/09 01:07:51;;;;;;;14.05;10.52;;;;;;;;;;4987519;28;20037;-76
2022/11/09 01:10:17;;;;;;;21.55;10.43;;;;;;;;;;4988045;28;20026;-76
2022/11/09 01:12:42;;;;;;;11.63;9.60;;;;;;;;;;4983549;28;20554;-76
2022/11/09 01:15:08;;;;;;;12.48;10.27;;;;;;;;;;5002252;28;20443;-76
2022/11/09 01:17:34;;;;;;;12.82;9.75;;;;;;;;;;5001994;28;20400;-76
2022/11/09 01:20:00;;;;;;;11.50;10.00;;;;;;;;;;4986067;28;20030;-76
2022/11/09 01:22:26;;;;;;;10.30;9.25;;;;;;;;;;4998734;28;20480;-76
2022/11/09 01:24:53;;;;;;;13.30;10.02;;;;;;;;;;4982152;28;22035;-76
2022/11/09 01:27:22;;;;;;;12.02;9.40;;;;;;;;;;4983358;28;20478;-76
2022/11/09 01:29:48;;;;;;;11.65;9.57;;;;;;;;;;5000437;28;20057;-76
2022/11/09 01:32:13;;;;;;;10.23;9.00;;;;;;;;;;5000060;28;20030;-76
2022/11/09 01:34:42;;;;;;;15.48;9.50;;;;;;;;;;4999392;28;20041;-76
2022/11/09 01:37:11;;;;;;;18.25;9.93;;;;;;;;;;4987442;28;20041;-76
2022/11/09 01:39:37;;;;;;;12.20;9.15;;;;;;;;;;4986903;28;20030;-76
2022/11/09 01:42:03;;;;;;;10.80;9.38;;;;;;;;;;4950993;28;20057;-76
2022/11/09 01:44:33;;;;;;;14.20;9.30;;;;;;;;;;4986014;28;20033;-77
2022/11/09 01:47:01;;;;;;;14.55;9.25;;;;;;;;;;4999025;28;20038;-76
2022/11/09 01:49:30;;;;;;;12.02;9.10;;;;;;;;;;5002337;28;20053;-76
2022/11/09 01:52:03;;;;;;;12.07;9.10;;;;;;;;;;4980807;28;20049;-76
2022/11/09 01:54:35;;;;;;;11.35;8.82;;;;;;;;;;4987312;28;20503;-76
2022/11/09 01:57:04;;;;;;;10.57;8.27;;;;;;;;;;4962941;28;20037;-76
2022/11/09 01:59:32;;;;;;;8.77;7.72;;;;;;;;;;4999949;28;20019;-76
2022/11/09 02:02:02;;;;;;;11.73;8.50;;;;;;;;;;4989505;28;20400;-76
2022/11/09 02:04:37;;;;;;;11.82;8.27;;;;;;;;;;4997539;28;20038;-76
2022/11/09 02:07:03;;;;;;;11.10;9.02;;;;;;;;;;5001116;28;20035;-76
2022/11/09 02:09:38;;;;;;;15.45;9.18;;;;;;;;;;4986873;28;20033;-76
2022/11/09 02:12:05;;;;;;;10.55;7.80;;;;;;;;;;4985563;28;20041;-77
2022/11/09 02:14:34;;;;;;;10.55;9.25;;;;;;;;;;5002120;28;20481;-77
2022/11/09 02:17:00;;;;;;;9.07;8.18;;;;;;;;;;5002388;28;20034;-77
2022/11/09 02:19:26;;;;;;;26.40;8.73;;;;;;;;;;4986924;28;20023;-77
2022/11/09 02:21:52;;;;;;;8.25;7.18;;;;;;;;;;5002420;28;20133;-77
2022/11/09 02:24:23;;;;;;;10.25;7.40;;;;;;;;;;4997759;28;20027;-77
2022/11/09 02:26:52;;;;;;;8.70;7.65;;;;;;;;;;5000804;28;20038;-77
2022/11/09 02:29:23;;;;;;;10.90;7.88;;;;;;;;;;4985934;28;20027;-77
2022/11/09 02:31:53;;;;;;;10.38;8.07;;;;;;;;;;4999137;28;20045;-77
2022/11/09 02:34:20;;;;;;;8.15;6.93;;;;;;;;;;4980641;28;20022;-77
2022/11/09 02:36:46;;;;;;;11.75;8.27;;;;;;;;;;4968090;28;20323;-77
2022/11/09 02:39:22;;;;;;;8.35;6.32;;;;;;;;;;4984222;28;20513;-77
2022/11/09 02:41:56;;;;;;;11.77;8.45;;;;;;;;;;5000835;28;20041;-77
2022/11/09 02:44:22;;;;;;;12.43;7.68;;;;;;;;;;4998705;28;20049;-77
2022/11/09 02:46:57;;;;;;;10.63;7.38;;;;;;;;;;4981568;28;20685;-77
2022/11/09 02:49:25;;;;;;;7.20;6.50;;;;;;;;;;4983384;28;20428;-77
2022/11/09 02:51:51;;;;;;;9.63;8.23;;;;;;;;;;5000175;28;20030;-77
2022/11/09 02:54:19;;;;;;;9.73;6.40;;;;;;;;;;4995709;28;20027;-77
2022/11/09 02:56:50;;;;;;;10.10;7.40;;;;;;;;;;4993105;28;20030;-77
2022/11/09 02:59:16;;;;;;;8.38;7.43;;;;;;;;;;4987898;28;20027;-77
2022/11/09 03:01:42;;;;;;;8.40;6.60;;;;;;;;;;4967160;28;20046;-77
2022/11/09 03:04:13;;;;;;;8.48;7.00;;;;;;;;;;4988250;28;20041;-77
2022/11/09 03:06:38;;;;;;;8.30;6.30;;;;;;;;;;4990178;28;20034;-77
2022/11/09 03:09:12;;;;;;;6.70;5.53;;;;;;;;;;4999077;28;20041;-77
2022/11/09 03:11:41;;;;;;;8.25;7.55;;;;;;;;;;4991950;28;20042;-77
2022/11/09 03:14:09;;;;;;;8.93;7.80;;;;;;;;;;5001783;28;20038;-77
2022/11/09 03:16:40;;;;;;;8.98;8.13;;;;;;;;;;4986553;28;20029;-77
2022/11/09 03:19:06;;;;;;;9.10;7.55;;;;;;;;;;4988097;28;20400;-77
2022/11/09 03:21:33;;;;;;;12.73;9.52;;;;;;;;;;4984844;28;20118;-77
2022/11/09 03:24:01;;;;;;;8.85;7.25;;;;;;;;;;4987129;28;20030;-77
2022/11/09 03:26:30;;;;;;;12.02;7.78;;;;;;;;;;4969504;28;20484;-77
2022/11/09 03:28:58;;;;;;;13.30;8.13;;;;;;;;;;4989454;28;20029;-77
2022/11/09 03:31:24;;;;;;;11.77;8.43;;;;;;;;;;4987134;28;20025;-77
2022/11/09 03:33:54;;;;;;;11.05;8.40;;;;;;;;;;5002430;28;20049;-77
2022/11/09 03:36:20;;;;;;;9.57;8.00;;;;;;;;;;4987481;28;20050;-77
2022/11/09 03:38:46;;;;;;;8.52;7.68;;;;;;;;;;4987217;28;20398;-77
2022/11/09 03:41:12;;;;;;;9.30;8.10;;;;;;;;;;4987713;28;20034;-77
2022/11/09 03:43:40;;;;;;;11.82;8.00;;;;;;;;;;4985139;28;20038;-77
2022/11/09 03:46:06;;;;;;;7.75;7.00;;;;;;;;;;4984993;28;20519;-77
2022/11/09 03:48:32;;;;;;;8.40;7.55;;;;;;;;;;4990343;28;20085;-77
2022/11/09 03:50:58;;;;;;;10.00;8.18;;;;;;;;;;4986710;28;20038;-77
2022/11/09 03:53:26;;;;;;;9.45;8.32;;;;;;;;;;4971708;28;20444;-77
2022/11/09 03:55:52;;;;;;;9.32;8.43;;;;;;;;;;4987350;28;20025;-77
2022/11/09 03:58:20;;;;;;;9.63;8.50;;;;;;;;;;4988762;28;20038;-77
2022/11/09 04:00:46;;;;;;;9.85;7.30;;;;;;;;;;4987151;28;20026;-77
2022/11/09 04:03:14;;;;;;;11.38;8.15;;;;;;;;;;4987587;28;20034;-77
2022/11/09 04:05:42;;;;;;;12.00;9.77;;;;;;;;;;4985354;28;20030;-77
2022/11/09 04:08:08;;;;;;;12.13;9.68;;;;;;;;;;4989505;28;20030;-77
2022/11/09 04:10:34;;;;;;;12.25;9.38;;;;;;;;;;4989408;28;20080;-77
2022/11/09 04:13:00;;;;;;;10.02;8.55;;;;;;;;;;4986079;28;20042;-77
2022/11/09 04:15:26;;;;;;;14.00;10.05;;;;;;;;;;4987131;28;20037;-77
2022/11/09 04:17:58;;;;;;;10.90;9.80;;;;;;;;;;4987580;28;20034;-77
2022/11/09 04:20:27;;;;;;;10.38;9.07;;;;;;;;;;4989453;28;20035;-77
2022/11/09 04:23:00;;;;;;;14.43;10.20;;;;;;;;;;4940900;28;20034;-77
2022/11/09 04:25:27;;;;;;;12.35;8.68;;;;;;;;;;4986465;28;20064;-77
2022/11/09 04:27:59;;;;;;;11.98;8.27;;;;;;;;;;4986942;28;20030;-77
2022/11/09 04:30:28;;;;;;;11.82;9.80;;;;;;;;;;4987635;28;20038;-77
2022/11/09 04:32:54;;;;;;;10.68;8.00;;;;;;;;;;4997559;28;20043;-76
2022/11/09 04:35:20;;;;;;;11.82;9.25;;;;;;;;;;4988453;28;20022;-76
2022/11/09 04:37:59;;;;;;;10.55;9.45;;;;;;;;;;4972820;28;20788;-76
2022/11/09 04:40:28;;;;;;;9.63;8.73;;;;;;;;;;4984079;28;20022;-76
2022/11/09 04:43:00;;;;;;;13.32;10.63;;;;;;;;;;4990066;28;20030;-76
2022/11/09 04:45:28;;;;;;;11.32;9.95;;;;;;;;;;4989516;28;20035;-76
2022/11/09 04:48:00;;;;;;;10.15;8.40;;;;;;;;;;4974250;28;20275;-76
2022/11/09 04:50:28;;;;;;;11.80;9.68;;;;;;;;;;4986193;28;20040;-76
2022/11/09 04:52:54;;;;;;;11.00;9.90;;;;;;;;;;4986054;28;20408;-76
2022/11/09 04:55:25;;;;;;;9.63;8.63;;;;;;;;;;4983562;28;20022;-76
2022/11/09 04:57:51;;;;;;;13.32;9.05;;;;;;;;;;4985533;28;20027;-75
2022/11/09 05:00:19;;;;;;;11.65;8.60;;;;;;;;;;4985337;28;20034;-76
2022/11/09 05:02:45;;;;;;;9.45;8.20;;;;;;;;;;4988858;28;20041;-76
2022/11/09 05:05:11;;;;;;;10.35;9.25;;;;;;;;;;5000511;28;20081;-76
2022/11/09 05:07:39;;;;;;;12.48;8.57;;;;;;;;;;4988240;28;20038;-76
2022/11/09 05:10:08;;;;;;;10.80;8.75;;;;;;;;;;4981012;28;20038;-76
2022/11/09 05:12:33;;;;;;;9.75;8.20;;;;;;;;;;4971546;28;20113;-76
2022/11/09 05:14:59;;;;;;;9.90;8.27;;;;;;;;;;4980456;28;20154;-76
2022/11/09 05:17:25;;;;;;;10.82;8.57;;;;;;;;;;4990704;28;20464;-76
2022/11/09 05:19:53;;;;;;;11.88;9.05;;;;;;;;;;5006553;22;20046;-79
2022/11/09 05:25:06;;;;;;;10.55;9.35;;;;;;;;;;5004384;28;20282;-79
2022/11/09 05:27:32;;;;;;;9.65;8.20;;;;;;;;;;4989066;28;20049;-79
2022/11/09 05:29:58;;;;;;;11.10;9.10;;;;;;;;;;5004615;28;20038;-78
2022/11/09 05:32:26;;;;;;;8.10;7.22;;;;;;;;;;5009705;28;20427;-78
2022/11/09 05:34:52;;;;;;;10.77;8.13;;;;;;;;;;4990318;28;20041;-78
2022/11/09 05:37:21;;;;;;;8.10;7.38;;;;;;;;;;4973468;28;20054;-78
2022/11/09 05:39:47;;;;;;;9.77;8.57;;;;;;;;;;4990528;28;20034;-78
2022/11/09 05:42:13;;;;;;;8.60;7.70;;;;;;;;;;4992700;28;20524;-78
2022/11/09 05:44:38;;;;;;;11.90;10.55;;;;;;;;;;5019304;28;20040;-79
2022/11/09 05:47:04;;;;;;;10.38;8.07;;;;;;;;;;5009051;28;20101;-79
2022/11/09 05:49:32;;;;;;;8.82;8.05;;;;;;;;;;4991361;28;20037;-79
2022/11/09 05:52:01;;;;;;;9.98;8.98;;;;;;;;;;4990104;28;20029;-79
2022/11/09 05:54:29;;;;;;;12.18;10.50;;;;;;;;;;4974657;28;20030;-79
2022/11/09 05:56:57;;;;;;;9.45;8.02;;;;;;;;;;5007435;28;20045;-79
2022/11/09 05:59:26;;;;;;;9.43;8.10;;;;;;;;;;4986874;28;20034;-79
2022/11/09 06:01:54;;;;;;;9.57;8.60;;;;;;;;;;5000924;28;20041;-79
2022/11/09 06:04:20;;;;;;;15.68;10.75;;;;;;;;;;5008508;28;20044;-79
2022/11/09 06:06:46;;;;;;;11.25;8.77;;;;;;;;;;4991261;28;20038;-79
2022/11/09 06:09:14;;;;;;;10.77;8.82;;;;;;;;;;4998174;28;20038;-79
2022/11/09 06:11:40;;;;;;;10.77;9.73;;;;;;;;;;4990957;28;20029;-79
2022/11/09 06:14:05;;;;;;;15.50;11.23;;;;;;;;;;5006508;28;20042;-79
2022/11/09 06:16:31;;;;;;;15.80;13.85;;;;;;;;;;5005544;28;20037;-79
2022/11/09 06:18:57;;;;;;;14.10;12.77;;;;;;;;;;5009183;28;20412;-78
2022/11/09 06:21:28;;;;;;;15.85;13.13;;;;;;;;;;4992468;28;20042;-78
2022/11/09 06:23:58;;;;;;;11.80;10.63;;;;;;;;;;4989724;28;20056;-78
2022/11/09 06:26:26;;;;;;;17.20;12.40;;;;;;;;;;5021853;28;20491;-79
2022/11/09 06:28:52;;;;;;;13.30;11.95;;;;;;;;;;4990540;28;20038;-78
2022/11/09 06:31:19;;;;;;;13.10;11.80;;;;;;;;;;4991679;28;20049;-78
2022/11/09 06:33:45;;;;;;;12.57;11.30;;;;;;;;;;5007352;28;20049;-78
2022/11/09 06:36:11;;;;;;;19.95;14.93;;;;;;;;;;5008260;28;20029;-78
2022/11/09 06:38:37;;;;;;;21.75;18.50;;;;;;;;;;5017333;28;20025;-78
2022/11/09 06:41:03;;;;;;;15.35;13.70;;;;;;;;;;5013932;28;20063;-78
2022/11/09 06:43:29;;;;;;;17.35;12.80;;;;;;;;;;5005653;28;20485;-78
2022/11/09 06:45:55;;;;;;;14.48;12.85;;;;;;;;;;5006279;28;20033;-78
2022/11/09 06:48:21;;;;;;;12.90;11.32;;;;;;;;;;5005576;28;20046;-78
2022/11/09 06:50:47;;;;;;;16.15;12.93;;;;;;;;;;4999333;28;20030;-78
2022/11/09 06:53:14;;;;;;;14.25;12.82;;;;;;;;;;4995974;28;20479;-78
2022/11/09 06:55:42;;;;;;;14.60;13.13;;;;;;;;;;4992523;28;20030;-78
2022/11/09 06:58:13;;;;;;;13.13;11.60;;;;;;;;;;5001714;28;20025;-78
2022/11/09 07:00:38;;;;;;;13.60;11.98;;;;;;;;;;4991117;28;20045;-78
2022/11/09 07:03:05;;;;;;;13.73;11.85;;;;;;;;;;5012293;28;20030;-78
2022/11/09 07:05:30;;;;;;;14.45;12.13;;;;;;;;;;5015746;28;20041;-78
2022/11/09 07:07:56;;;;;;;14.02;11.25;;;;;;;;;;4990465;28;20036;-78
2022/11/09 07:10:22;;;;;;;13.23;9.98;;;;;;;;;;4997032;28;20479;-78
2022/11/09 07:12:51;;;;;;;12.35;9.73;;;;;;;;;;5004040;28;20042;-78
2022/11/09 07:15:17;;;;;;;12.02;10.00;;;;;;;;;;4990049;28;20451;-78
2022/11/09 07:17:43;;;;;;;12.38;9.95;;;;;;;;;;5010286;28;20037;-78
2022/11/09 07:20:09;;;;;;;11.60;9.48;;;;;;;;;;5004953;28;20033;-78
2022/11/09 07:22:38;;;;;;;12.13;9.32;;;;;;;;;;5014158;28;20408;-78
2022/11/09 07:25:13;;;;;;;18.33;13.23;;;;;;;;;;5007658;28;20033;-78
2022/11/09 07:27:39;;;;;;;12.93;9.32;;;;;;;;;;5012866;28;20025;-77
2022/11/09 07:30:07;;;;;;;10.90;8.80;;;;;;;;;;5021285;28;20107;-78
2022/11/09 07:32:34;;;;;;;12.52;10.90;;;;;;;;;;4996372;28;20038;-78
2022/11/09 07:35:00;;;;;;;12.38;10.95;;;;;;;;;;4975017;28;20026;-80
2022/11/09 07:37:25;;;;;;;12.95;9.18;;;;;;;;;;5007589;28;20037;-79
2022/11/09 07:39:51;;;;;;;14.38;10.43;;;;;;;;;;5008852;28;20045;-79
2022/11/09 07:42:19;;;;;;;14.40;10.60;;;;;;;;;;5009414;28;20018;-79
2022/11/09 07:44:51;;;;;;;16.23;11.93;;;;;;;;;;4985877;28;20476;-79
2022/11/09 07:47:19;;;;;;;18.20;11.48;;;;;;;;;;4995658;28;20018;-79
2022/11/09 07:49:45;;;;;;;13.45;10.95;;;;;;;;;;5011190;28;20404;-79
2022/11/09 07:52:11;;;;;;;15.25;11.95;;;;;;;;;;4998755;28;20022;-81
2022/11/09 07:54:38;;;;;;;15.27;12.68;;;;;;;;;;5012665;28;20030;-81
2022/11/09 07:57:04;;;;;;;14.13;11.70;;;;;;;;;;4993965;28;20025;-81
2022/11/09 07:59:32;;;;;;;14.85;11.15;;;;;;;;;;4979933;28;20029;-81
2022/11/09 08:02:01;;;;;;;12.50;11.15;;;;;;;;;;5011966;28;20025;-81
2022/11/09 08:04:29;;;;;;;13.75;11.48;;;;;;;;;;4995436;28;20030;-81
2022/11/09 08:06:55;;;;;;;10.02;9.10;;;;;;;;;;5019461;28;20033;-81
2022/11/09 08:09:26;;;;;;;16.33;11.25;;;;;;;;;;5013529;28;20026;-81
2022/11/09 08:11:52;;;;;;;12.80;10.85;;;;;;;;;;4989404;28;20049;-81
2022/11/09 08:14:20;;;;;;;15.60;12.18;;;;;;;;;;4971333;28;20029;-81
2022/11/09 08:16:46;;;;;;;14.60;11.13;;;;;;;;;;5004124;28;20500;-81
2022/11/09 08:19:14;;;;;;;11.73;10.52;;;;;;;;;;4986922;28;20022;-81
2022/11/09 08:21:45;;;;;;;11.43;10.23;;;;;;;;;;5014074;28;20030;-81
2022/11/09 08:24:16;;;;;;;20.17;16.77;;;;;;;;;;4971864;28;20397;-81
2022/11/09 08:26:41;;;;;;;17.00;12.65;;;;;;;;;;4997182;28;20036;-81
2022/11/09 08:29:07;;;;;;;16.02;12.50;;;;;;;;;;5013976;28;20034;-81
2022/11/09 08:31:38;;;;;;;10.55;9.27;;;;;;;;;;5029775;28;20010;-81
2022/11/09 08:34:04;;;;;;;13.13;10.70;;;;;;;;;;5027958;28;20033;-81
2022/11/09 08:36:35;;;;;;;13.88;12.45;;;;;;;;;;5023644;28;20020;-81
2022/11/09 08:39:00;;;;;;;17.73;12.43;;;;;;;;;;4983304;28;20030;-81
2022/11/09 08:41:32;;;;;;;15.68;12.88;;;;;;;;;;4997311;28;20026;-81
2022/11/09 08:43:58;;;;;;;13.00;11.73;;;;;;;;;;4991596;28;20052;-81
2022/11/09 08:46:24;;;;;;;14.68;13.18;;;;;;;;;;5010165;28;20059;-81
2022/11/09 08:48:52;;;;;;;9.13;8.18;;;;;;;;;;4992593;28;20431;-81
2022/11/09 08:51:22;;;;;;;11.95;10.20;;;;;;;;;;5009354;28;20026;-82
2022/11/09 08:53:49;;;;;;;10.77;9.48;;;;;;;;;;4995214;28;20030;-82
2022/11/09 08:56:17;;;;;;;12.75;9.07;;;;;;;;;;5004575;28;20518;-82
2022/11/09 08:58:44;;;;;;;13.30;11.75;;;;;;;;;;5011032;28;20029;-81
2022/11/09 09:01:12;;;;;;;11.23;9.20;;;;;;;;;;5009816;28;20026;-82
2022/11/09 09:03:45;;;;;;;11.35;10.00;;;;;;;;;;5006673;28;20033;-81
2022/11/09 09:06:11;;;;;;;11.15;10.07;;;;;;;;;;4996553;28;20042;-80
2022/11/09 09:08:40;;;;;;;13.13;10.07;;;;;;;;;;4996145;28;20056;-78
2022/11/09 09:11:05;;;;;;;11.38;10.35;;;;;;;;;;4998649;28;20038;-78
2022/11/09 09:13:34;;;;;;;9.15;8.25;;;;;;;;;;5008783;28;20124;-77
2022/11/09 09:16:12;;;;;;;9.88;8.98;;;;;;;;;;4995810;28;20387;-79
2022/11/09 09:18:38;;;;;;;15.48;12.25;;;;;;;;;;4980074;28;20472;-79
2022/11/09 09:21:09;;;;;;;11.30;10.05;;;;;;;;;;4975500;28;20034;-79
2022/11/09 09:23:35;;;;;;;9.80;8.88;;;;;;;;;;4974385;28;20037;-79
2022/11/09 09:26:04;;;;;;;13.70;12.10;;;;;;;;;;5005992;28;20038;-80
2022/11/09 09:28:32;;;;;;;11.60;10.43;;;;;;;;;;4986576;28;20042;-79
2022/11/09 09:30:58;;;;;;;12.77;10.80;;;;;;;;;;5001144;28;20033;-79
2022/11/09 09:33:29;;;;;;;9.02;6.97;;;;;;;;;;5011172;28;20026;-80
2022/11/09 09:35:58;;;;;;;7.78;6.65;;;;;;;;;;5007351;28;20037;-80
2022/11/09 09:38:27;;;;;;;5.95;5.05;;;;;;;;;;4992971;28;20026;-80
2022/11/09 09:40:53;;;;;;;8.55;6.32;;;;;;;;;;4976427;28;20034;-80
2022/11/09 09:43:50;;;;;;;7.40;5.75;;;;;;;;;;4979644;28;20504;-80
2022/11/09 09:46:36;;;;;;;5.18;4.63;;;;;;;;;;4984163;28;20053;-80
2022/11/09 09:49:34;;;;;;;4.13;3.40;;;;;;;;;;4989331;28;20032;-80
2022/11/09 09:52:05;;;;;;;5.05;4.53;;;;;;;;;;4991287;28;20045;-80
2022/11/09 09:54:46;;;;;;;6.75;6.15;;;;;;;;;;5018472;28;20025;-80
2022/11/09 09:57:15;;;;;;;4.78;4.20;;;;;;;;;;5005699;28;20041;-80
2022/11/09 09:59:43;;;;;;;7.25;5.15;;;;;;;;;;4991051;28;20041;-79
2022/11/09 10:02:24;;;;;;;3.75;3.45;;;;;;;;;;5010230;28;20387;-80
2022/11/09 10:04:51;;;;;;;6.22;5.63;;;;;;;;;;4994006;28;20496;-80
2022/11/09 10:07:24;;;;;;;9.02;4.80;;;;;;;;;;5008497;28;20458;-80
2022/11/09 10:10:08;;;;;;;6.25;4.32;;;;;;;;;;5009006;28;20030;-80
2022/11/09 10:12:45;;;;;;;5.68;4.28;;;;;;;;;;5010748;28;20030;-80
2022/11/09 10:15:14;;;;;;;5.57;3.40;;;;;;;;;;4987267;28;20476;-80
2022/11/09 10:18:03;;;;;;;5.00;4.35;;;;;;;;;;4990701;28;20510;-80
2022/11/09 10:20:44;;;;;;;4.15;3.67;;;;;;;;;;4997617;28;20484;-80
2022/11/09 10:23:24;;;;;;;6.03;3.47;;;;;;;;;;4995717;28;20041;-80
2022/11/09 10:25:53;;;;;;;4.95;2.80;;;;;;;;;;5015632;28;20034;-80
2022/11/09 10:28:24;;;;;;;4.97;2.75;;;;;;;;;;5009967;28;20049;-80
2022/11/09 10:30:50;;;;;;;3.05;2.53;;;;;;;;;;4986000;28;20395;-80
2022/11/09 10:33:20;;;;;;;2.45;2.00;;;;;;;;;;4990501;28;20041;-80
2022/11/09 10:36:04;;;;;;;3.90;2.55;;;;;;;;;;4989505;28;20487;-79
2022/11/09 10:38:42;;;;;;;3.58;2.50;;;;;;;;;;4992081;28;20037;-80
2022/11/09 10:41:37;;;;;;;3.72;2.83;;;;;;;;;;5008175;28;20490;-80
2022/11/09 10:44:21;;;;;;;2.92;2.28;;;;;;;;;;5011995;28;20033;-80
2022/11/09 10:47:15;;;;;;;5.15;3.20;;;;;;;;;;5031181;28;20163;-80
2022/11/09 10:50:05;;;;;;;2.90;2.33;;;;;;;;;;5000529;28;20041;-80
2022/11/09 10:52:50;;;;;;;3.85;2.58;;;;;;;;;;5011942;28;20038;-80
2022/11/09 10:55:37;;;;;;;3.05;2.33;;;;;;;;;;5024972;28;20037;-80
2022/11/09 10:58:32;;;;;;;2.35;2.05;;;;;;;;;;5009707;28;20424;-80
2022/11/09 11:01:18;;;;;;;3.05;2.38;;;;;;;;;;5008997;28;20034;-80
2022/11/09 11:04:23;;;;;;;2.03;1.70;;;;;;;;;;5003221;28;20415;-80
2022/11/09 11:07:12;;;;;;;7.93;2.45;;;;;;;;;;5014188;28;20037;-80
2022/11/09 11:10:10;;;;;;;3.25;1.95;;;;;;;;;;5021568;28;20026;-80
2022/11/09 11:13:00;;;;;;;9.45;2.17;;;;;;;;;;5011583;28;20034;-80
2022/11/09 11:15:45;;;;;;;2.92;1.80;;;;;;;;;;5004818;28;20019;-80
2022/11/09 11:18:33;;;;;;;2.22;1.80;;;;;;;;;;4992469;28;20029;-80
2022/11/09 11:24:42;;;;;;;3.33;2.05;;;;;;;;;;4980254;28;20057;-76
2022/11/09 11:27:41;;;;;;;3.70;1.75;;;;;;;;;;5017223;28;20045;-76
2022/11/09 11:30:27;;;;;;;4.10;1.65;;;;;;;;;;5007908;28;20041;-76
2022/11/09 11:33:18;;;;;;;2.88;2.45;;;;;;;;;;4997104;28;20030;-76
2022/11/09 11:36:18;;;;;;;4.00;2.22;;;;;;;;;;4997982;28;20447;-76
2022/11/09 11:39:17;;;;;;;2.83;1.90;;;;;;;;;;5013832;28;20030;-76
2022/11/09 11:42:27;;;;;;;3.90;1.55;;;;;;;;;;5011920;28;20026;-76
2022/11/09 11:45:22;;;;;;;2.42;1.92;;;;;;;;;;4984305;28;20511;-76
2022/11/09 11:48:22;;;;;;;11.07;3.17;;;;;;;;;;5014132;28;20037;-76
2022/11/09 11:51:12;;;;;;;2.72;1.77;;;;;;;;;;5002693;28;20476;-76
2022/11/09 11:54:20;;;;;;;2.53;2.00;;;;;;;;;;5007577;28;20030;-76
2022/11/09 11:57:05;;;;;;;3.97;1.77;;;;;;;;;;5016179;28;20018;-76
2022/11/09 12:00:10;;;;;;;2.65;2.45;;;;;;;;;;5011785;28;20061;-76
2022/11/09 12:02:57;;;;;;;1.88;1.48;;;;;;;;;;5005243;28;20022;-76
2022/11/09 12:05:47;;;;;;;3.28;1.45;;;;;;;;;;4996618;28;20030;-76
2022/11/09 12:08:41;;;;;;;2.42;1.35;;;;;;;;;;5003227;28;20025;-76
2022/11/09 12:11:46;;;;;;;2.63;2.28;;;;;;;;;;5009312;28;20037;-76
2022/11/09 12:14:33;;;;;;;2.05;1.75;;;;;;;;;;5007685;28;20030;-76
2022/11/09 12:17:17;;;;;;;1.90;1.42;;;;;;;;;;5001301;28;20507;-76
2022/11/09 12:20:10;;;;;;;1.77;1.60;;;;;;;;;;4979882;28;20030;-76
2022/11/09 12:23:04;;;;;;;2.95;1.77;;;;;;;;;;4992228;28;20034;-76
2022/11/09 12:25:48;;;;;;;;;;;;;;;;;;5009213;28;20029;-76
2022/11/09 12:28:33;;;;;;;;;;;;;;;;;;5008862;28;19920;-76
2022/11/09 12:31:21;;;;;;;1.98;1.50;;;;;;;;;;5003180;28;19913;-76
2022/11/09 12:34:14;;;;;;;2.45;1.85;;;;;;;;;;4996326;28;20041;-75
2022/11/09 12:37:03;;;;;;;2.45;1.85;;;;;;;;;;5010490;28;20026;-76
2022/11/09 12:39:51;;;;;;;3.13;2.33;;;;;;;;;;5009946;28;20025;-76
2022/11/09 12:42:41;;;;;;;2.08;1.67;;;;;;;;;;5009865;28;20034;-75
2022/11/09 12:45:27;;;;;;;3.28;2.83;;;;;;;;;;5009980;28;20022;-75
2022/11/09 12:48:28;;;;;;;2.72;1.90;;;;;;;;;;5010302;28;20021;-76
2022/11/09 12:51:15;;;;;;;2.65;1.90;;;;;;;;;;4994569;28;20030;-76
2022/11/09 12:54:08;;;;;;;2.67;2.30;;;;;;;;;;5010878;28;20026;-76
2022/11/09 12:56:55;;;;;;;2.50;2.28;;;;;;;;;;5007709;28;20039;-76
2022/11/09 12:59:46;;;;;;;1.50;1.40;;;;;;;;;;5011497;28;20022;-76
2022/11/09 13:02:41;;;;;;;4.00;2.63;;;;;;;;;;5008075;28;20385;-75
2022/11/09 13:05:36;;;;;;;2.20;1.70;;;;;;;;;;5010627;28;20392;-75
2022/11/09 13:08:30;;;;;;;3.65;1.77;;;;;;;;;;5008545;28;20030;-75
2022/11/09 13:11:20;;;;;;;3.58;1.60;;;;;;;;;;5009940;28;20021;-76
2022/11/09 13:14:31;;;;;;;2.38;1.83;;;;;;;;;;5006309;28;20030;-75
2022/11/09 13:17:27;;;;;;;5.68;2.03;;;;;;;;;;5000311;28;20423;-75
2022/11/09 13:20:30;;;;;;;2.58;1.98;;;;;;;;;;5004056;28;20507;-76
2022/11/09 13:23:29;;;;;;;3.25;1.58;;;;;;;;;;5005643;28;20037;-75
2022/11/09 13:26:31;;;;;;;2.58;1.83;;;;;;;;;;5010488;28;20026;-75
2022/11/09 13:29:25;;;;;;;3.03;2.28;;;;;;;;;;5006433;28;20487;-75
2022/11/09 13:32:09;;;;;;;7.43;2.67;;;;;;;;;;4997557;28;20037;-75
2022/11/09 13:34:54;;;;;;;1.73;1.13;;;;;;;;;;4996503;28;20034;-77
2022/11/09 13:37:38;;;;;;;1.83;1.52;;;;;;;;;;5008275;28;20030;-76
2022/11/09 13:40:31;;;;;;;1.38;1.27;;;;;;;;;;4993826;28;20388;-76
2022/11/09 13:43:16;;;;;;;3.53;2.17;;;;;;;;;;5004633;28;20492;-77
2022/11/09 13:46:02;;;;;;;3.70;2.30;;;;;;;;;;5009723;28;20025;-77
2022/11/09 13:48:50;;;;;;;3.50;2.17;;;;;;;;;;5007820;28;20033;-75
2022/11/09 13:51:34;;;;;;;4.72;1.98;;;;;;;;;;5006096;28;20026;-76
2022/11/09 13:54:28;;;;;;;2.95;1.75;;;;;;;;;;5011796;28;20060;-75
2022/11/09 13:57:13;;;;;;;2.22;1.88;;;;;;;;;;4993409;28;20049;-75
2022/11/09 14:00:01;;;;;;;2.22;1.55;;;;;;;;;;5009782;28;20030;-75
2022/11/09 14:02:59;;;;;;;3.70;2.22;;;;;;;;;;4999064;28;20038;-76
2022/11/09 14:05:44;;;;;;;4.93;2.47;;;;;;;;;;4993618;28;20684;-76
2022/11/09 14:08:42;;;;;;;2.38;2.00;;;;;;;;;;5000388;28;20030;-76
2022/11/09 14:11:32;;;;;;;3.45;2.25;;;;;;;;;;5006255;28;20029;-76
2022/11/09 14:14:28;;;;;;;2.58;2.00;;;;;;;;;;4988523;28;20037;-76
2022/11/09 14:17:15;;;;;;;3.05;2.05;;;;;;;;;;4996904;28;20484;-75
2022/11/09 14:20:05;;;;;;;2.20;1.48;;;;;;;;;;4985560;28;20037;-76
2022/11/09 14:22:50;;;;;;;2.95;1.55;;;;;;;;;;4990320;28;20533;-75
2022/11/09 14:25:37;;;;;;;1.77;1.40;;;;;;;;;;4977422;28;20030;-75
2022/11/09 14:28:28;;;;;;;4.53;2.17;;;;;;;;;;4993754;28;20063;-75
2022/11/09 14:31:23;;;;;;;1.95;1.60;;;;;;;;;;5005681;28;20025;-75
2022/11/09 14:34:13;;;;;;;2.63;1.60;;;;;;;;;;4993795;28;20026;-75
2022/11/09 14:37:00;;;;;;;4.88;2.10;;;;;;;;;;5006972;28;20022;-75
2022/11/09 14:39:48;;;;;;;1.83;1.45;;;;;;;;;;5011009;28;20026;-76
2022/11/09 14:42:33;;;;;;;3.13;2.15;;;;;;;;;;4985641;28;20030;-75
2022/11/09 14:45:17;;;;;;;2.92;1.90;;;;;;;;;;5005908;28;20400;-75
2022/11/09 14:48:06;;;;;;;3.00;1.88;;;;;;;;;;4995647;28;20026;-75
2022/11/09 14:50:52;;;;;;;2.20;1.45;;;;;;;;;;5007859;28;20034;-75
2022/11/09 14:53:43;;;;;;;3.28;2.70;;;;;;;;;;5008921;28;20045;-76
2022/11/09 14:56:32;;;;;;;4.93;1.80;;;;;;;;;;5006012;28;20526;-75
2022/11/09 14:59:18;;;;;;;2.10;1.70;;;;;;;;;;5000182;28;20032;-76
2022/11/09 15:02:05;;;;;;;3.65;1.92;;;;;;;;;;5008424;28;20025;-75
2022/11/09 15:04:51;;;;;;;4.38;1.63;;;;;;;;;;4997918;28;20400;-76
2022/11/09 15:07:35;;;;;;;3.08;1.80;;;;;;;;;;4999025;28;20038;-75
2022/11/09 15:10:21;;;;;;;3.03;2.20;;;;;;;;;;5012762;28;20021;-76
2022/11/09 15:13:11;;;;;;;3.65;2.50;;;;;;;;;;5000866;28;20045;-76
2022/11/09 15:15:56;;;;;;;5.82;1.73;;;;;;;;;;5011250;28;20042;-76
2022/11/09 15:18:43;;;;;;;2.08;1.98;;;;;;;;;;5006050;28;20507;-76
2022/11/09 15:21:34;;;;;;;4.82;1.85;;;;;;;;;;5008726;28;20392;-75
2022/11/09 15:24:20;;;;;;;2.35;2.15;;;;;;;;;;4998083;28;20472;-76